Winchester, Virginia
Current Conditions -  °F | °C
As of 6:15 AM on Wednesday 26 Nov 2014 (Local Time) from KOKV Reporting Station
Moderate Rain Moderate Rain  
Wind Chill: 39°   Ceiling: 2200
Heat Index: 39°   Visibility: 3mi
Dew Point: 34°   Wind: 3mph
Humidity: 81%   Direction: 350°N
Pressure: 30.08"   Gusts: NA
Location:  39.18°N, 78.16°W
Report Text: KOKV 261115Z AUTO 35003KT 3SM RA OVC022 04/01 A3008 RMK AO2 P0003
Loading
Personal Weather Stations






























Interactive Weather Map New forecast layout! Learn more

10-Day Weather Forecast

Advertisements
Track Severe Weather on mobile